createdAt,value
2023-05-17T00:01:58.389Z,10.77
2023-05-17T00:04:27.811Z,12.77
2023-05-17T00:06:55.808Z,9.27
2023-05-17T00:09:23.771Z,9.80
2023-05-17T00:11:51.910Z,9.25
2023-05-17T00:14:19.989Z,10.75
2023-05-17T00:16:48.039Z,14.27
2023-05-17T00:19:16.579Z,8.55
2023-05-17T00:21:46.140Z,11.90
2023-05-17T00:24:14.183Z,9.35
2023-05-17T00:26:42.115Z,10.80
2023-05-17T00:29:10.060Z,8.82
2023-05-17T00:31:38.028Z,28.42
2023-05-17T00:34:05.985Z,7.82
2023-05-17T00:36:34.055Z,10.88
2023-05-17T00:39:03.869Z,11.18
2023-05-17T00:41:31.856Z,9.20
2023-05-17T00:44:00.183Z,6.70
2023-05-17T00:46:28.350Z,9.65
2023-05-17T00:48:57.125Z,7.60
2023-05-17T00:51:25.088Z,9.30
2023-05-17T00:53:54.176Z,10.15
2023-05-17T00:56:24.864Z,7.47
2023-05-17T00:58:53.738Z,8.23
2023-05-17T01:01:22.125Z,8.70
2023-05-17T01:03:50.668Z,11.30
2023-05-17T01:06:18.854Z,9.30
2023-05-17T01:08:46.818Z,8.38
2023-05-17T01:11:25.053Z,7.43
2023-05-17T01:14:03.725Z,11.20
2023-05-17T01:16:36.011Z,8.63
2023-05-17T01:19:13.481Z,7.88
2023-05-17T01:21:57.964Z,10.23
2023-05-17T01:24:29.922Z,11.57
2023-05-17T01:27:02.179Z,9.88
2023-05-17T01:29:31.309Z,9.05
2023-05-17T01:32:01.249Z,8.70
2023-05-17T01:34:30.316Z,9.88
2023-05-17T01:36:58.776Z,10.88
2023-05-17T01:39:27.807Z,7.72
2023-05-17T01:42:03.300Z,8.27
2023-05-17T01:44:37.713Z,9.23
2023-05-17T01:47:13.057Z,10.15
2023-05-17T01:49:45.786Z,9.85
2023-05-17T01:52:19.964Z,9.85
2023-05-17T01:54:53.602Z,18.95
2023-05-17T01:57:29.674Z,8.68
2023-05-17T02:00:01.590Z,9.80
2023-05-17T02:02:29.642Z,8.77
2023-05-17T02:04:58.548Z,11.50
2023-05-17T02:07:27.205Z,10.05
2023-05-17T02:09:55.278Z,9.13
2023-05-17T02:12:25.457Z,8.73
2023-05-17T02:14:53.417Z,12.13
2023-05-17T02:17:21.471Z,10.40
2023-05-17T02:19:49.476Z,10.70
2023-05-17T02:22:17.451Z,9.75
2023-05-17T02:24:46.805Z,10.60
2023-05-17T02:27:14.747Z,10.13
2023-05-17T02:29:46.166Z,8.38
2023-05-17T02:32:15.484Z,9.63
2023-05-17T02:34:43.527Z,7.13
2023-05-17T02:37:11.511Z,8.32
2023-05-17T02:39:39.488Z,11.13
2023-05-17T02:42:08.030Z,10.65
2023-05-17T02:44:36.020Z,10.25
2023-05-17T02:47:05.856Z,10.70
2023-05-17T02:49:33.791Z,13.50
2023-05-17T02:52:02.410Z,9.63
2023-05-17T02:54:30.512Z,8.90
2023-05-17T02:56:58.455Z,6.93
2023-05-17T02:59:26.383Z,7.18
2023-05-17T03:01:54.566Z,9.02
2023-05-17T03:04:23.968Z,12.45
2023-05-17T03:06:52.102Z,10.88
2023-05-17T03:09:20.962Z,9.23
2023-05-17T03:11:49.328Z,11.93
2023-05-17T03:14:17.308Z,13.63
2023-05-17T03:16:45.350Z,9.07
2023-05-17T03:19:13.501Z,12.95
2023-05-17T03:21:42.891Z,12.45
2023-05-17T03:24:11.029Z,10.73
2023-05-17T03:26:39.087Z,12.23
2023-05-17T03:29:07.046Z,12.82
2023-05-17T03:31:35.144Z,17.83
2023-05-17T03:34:03.207Z,13.25
2023-05-17T03:36:31.473Z,11.60
2023-05-17T03:39:01.063Z,11.15
2023-05-17T03:41:29.119Z,14.93
2023-05-17T03:43:57.059Z,10.00
2023-05-17T03:46:27.162Z,11.57
2023-05-17T03:48:55.247Z,10.77
2023-05-17T03:51:23.385Z,12.02
2023-05-17T03:53:58.568Z,13.60
2023-05-17T03:56:28.769Z,12.20
2023-05-17T03:58:56.791Z,12.73
2023-05-17T04:01:24.872Z,14.20
2023-05-17T04:03:53.024Z,14.27
2023-05-17T04:06:21.090Z,11.90
2023-05-17T04:08:49.178Z,14.85
2023-05-17T04:11:23.588Z,11.05
2023-05-17T04:13:53.162Z,12.40
2023-05-17T04:16:21.226Z,10.60
2023-05-17T04:18:52.794Z,11.82
2023-05-17T04:21:21.493Z,13.05
2023-05-17T04:23:49.526Z,14.90
2023-05-17T04:26:17.611Z,13.85
2023-05-17T04:28:46.009Z,12.07
2023-05-17T04:31:18.071Z,18.80
2023-05-17T04:33:46.510Z,11.52
2023-05-17T04:36:14.661Z,12.55
2023-05-17T04:38:42.752Z,13.55
2023-05-17T04:41:11.394Z,14.20
2023-05-17T04:43:39.374Z,11.57
2023-05-17T04:46:07.403Z,14.55
2023-05-17T04:48:37.169Z,14.75
2023-05-17T04:51:05.695Z,17.77
2023-05-17T04:53:33.655Z,11.57
2023-05-17T04:56:01.602Z,11.13
2023-05-17T04:58:29.938Z,10.38
2023-05-17T05:00:57.871Z,12.68
2023-05-17T05:03:26.631Z,12.18
2023-05-17T05:05:56.068Z,12.45
2023-05-17T05:08:24.141Z,12.77
2023-05-17T05:10:52.444Z,12.88
2023-05-17T05:13:20.498Z,12.40
2023-05-17T05:15:50.532Z,15.15
2023-05-17T05:18:18.564Z,16.35
2023-05-17T05:20:47.642Z,13.05
2023-05-17T05:23:18.674Z,12.48
2023-05-17T05:25:47.340Z,12.18
2023-05-17T05:28:15.466Z,11.27
2023-05-17T05:30:43.536Z,11.15
2023-05-17T05:33:11.654Z,11.90
2023-05-17T05:35:39.665Z,13.60
2023-05-17T05:38:07.772Z,13.85
2023-05-17T05:40:37.141Z,15.43
2023-05-17T05:43:05.333Z,12.80
2023-05-17T05:45:33.315Z,13.80
2023-05-17T05:48:01.408Z,12.43
2023-05-17T05:50:29.850Z,13.32
2023-05-17T05:53:10.901Z,11.52
2023-05-17T05:55:47.250Z,10.57
2023-05-17T05:58:18.259Z,14.27
2023-05-17T06:00:46.282Z,10.85
2023-05-17T06:03:14.296Z,10.80
2023-05-17T06:05:42.490Z,11.95
2023-05-17T06:08:10.690Z,11.13
2023-05-17T06:10:38.663Z,11.20
2023-05-17T06:13:08.235Z,12.23
2023-05-17T06:15:36.147Z,12.40
2023-05-17T06:18:04.439Z,10.32
2023-05-17T06:20:32.607Z,8.50
2023-05-17T06:23:00.816Z,11.05
2023-05-17T06:25:28.907Z,8.98
2023-05-17T06:27:57.160Z,9.60
2023-05-17T06:30:27.939Z,10.30
2023-05-17T06:32:56.528Z,8.38
2023-05-17T06:35:24.887Z,9.13
2023-05-17T06:37:53.077Z,9.60
2023-05-17T06:40:21.156Z,8.80
2023-05-17T06:42:49.211Z,9.68
2023-05-17T06:45:17.280Z,8.57
2023-05-17T06:47:46.744Z,7.63
2023-05-17T06:50:15.190Z,7.20
2023-05-17T06:52:44.977Z,7.60
2023-05-17T06:55:12.891Z,9.38
2023-05-17T06:57:40.854Z,7.82
2023-05-17T07:00:11.233Z,7.63
2023-05-17T07:02:39.630Z,8.55
2023-05-17T07:05:10.019Z,9.02
2023-05-17T07:07:38.023Z,9.18
2023-05-17T07:10:07.227Z,7.82
2023-05-17T07:12:35.450Z,9.60
2023-05-17T07:15:03.448Z,8.43
2023-05-17T07:17:31.525Z,7.68
2023-05-17T07:19:59.730Z,11.18
2023-05-17T07:22:29.316Z,9.65
2023-05-17T07:24:57.361Z,12.45
2023-05-17T07:27:26.568Z,12.20
2023-05-17T07:29:56.087Z,8.27
2023-05-17T07:32:24.266Z,10.00
2023-05-17T07:34:52.285Z,9.40
2023-05-17T07:37:21.540Z,7.68
2023-05-17T07:39:50.874Z,10.57
2023-05-17T07:42:18.923Z,9.70
2023-05-17T07:44:48.725Z,11.00
2023-05-17T07:47:17.333Z,9.15
2023-05-17T07:49:46.246Z,8.93
2023-05-17T07:52:14.425Z,8.90
2023-05-17T07:54:42.383Z,7.63
2023-05-17T07:57:11.808Z,12.85
2023-05-17T07:59:39.840Z,7.18
2023-05-17T08:02:08.016Z,10.02
2023-05-17T08:04:36.249Z,9.35
2023-05-17T08:07:04.313Z,7.97
2023-05-17T08:09:32.318Z,10.48
2023-05-17T08:12:00.387Z,7.72
2023-05-17T08:14:32.749Z,7.35
2023-05-17T08:17:00.832Z,8.55
2023-05-17T08:19:29.071Z,12.00
2023-05-17T08:21:57.360Z,9.63
2023-05-17T08:24:25.345Z,9.68
2023-05-17T08:26:54.487Z,9.65
2023-05-17T08:29:22.494Z,10.52
2023-05-17T08:31:52.652Z,10.13
2023-05-17T08:34:20.722Z,9.80
2023-05-17T08:36:48.920Z,11.73
2023-05-17T08:39:17.688Z,10.35
2023-05-17T08:41:47.852Z,12.10
2023-05-17T08:44:18.199Z,9.77
2023-05-17T08:46:53.604Z,10.35
2023-05-17T08:49:25.924Z,9.30
2023-05-17T08:51:55.473Z,10.77
2023-05-17T08:54:23.601Z,10.65
2023-05-17T08:56:55.110Z,12.82
2023-05-17T08:59:24.130Z,10.10
2023-05-17T09:01:55.049Z,10.00
2023-05-17T09:04:25.147Z,9.75
2023-05-17T09:06:53.504Z,12.65
2023-05-17T09:09:21.790Z,8.80
2023-05-17T09:11:49.766Z,8.00
2023-05-17T09:14:18.260Z,10.75
2023-05-17T09:16:46.316Z,11.52
2023-05-17T09:19:18.082Z,10.90
2023-05-17T09:21:50.890Z,11.50
2023-05-17T09:24:22.039Z,10.98
2023-05-17T09:26:50.827Z,12.10
2023-05-17T09:29:19.129Z,10.20
2023-05-17T09:31:47.182Z,10.43
2023-05-17T09:34:20.258Z,10.68
2023-05-17T09:36:48.315Z,11.68
2023-05-17T09:39:17.812Z,14.18
2023-05-17T09:41:48.348Z,13.50
2023-05-17T09:44:17.047Z,11.95
2023-05-17T09:46:47.495Z,9.90
2023-05-17T09:49:16.473Z,9.60
2023-05-17T09:51:46.149Z,8.60
2023-05-17T09:54:14.842Z,10.57
2023-05-17T09:56:45.796Z,9.68
2023-05-17T09:59:15.186Z,10.20
2023-05-17T10:01:45.282Z,11.30
2023-05-17T10:04:14.790Z,8.60
2023-05-17T10:06:50.686Z,6.75
2023-05-17T10:09:23.114Z,9.10
2023-05-17T10:11:56.581Z,7.75
2023-05-17T10:14:31.946Z,9.43
2023-05-17T10:17:01.365Z,8.98
2023-05-17T10:19:29.811Z,6.82
2023-05-17T10:22:11.025Z,10.43
2023-05-17T10:24:49.230Z,7.90
2023-05-17T10:27:19.362Z,8.18
2023-05-17T10:29:50.482Z,12.00
2023-05-17T10:32:23.356Z,8.48
2023-05-17T10:35:05.874Z,9.60
2023-05-17T10:37:38.981Z,8.52
2023-05-17T10:40:13.518Z,12.63
2023-05-17T10:42:46.107Z,7.60
2023-05-17T10:45:14.915Z,7.82
2023-05-17T10:47:46.384Z,8.95
2023-05-17T10:50:15.761Z,6.00
2023-05-17T10:52:48.956Z,7.53
2023-05-17T10:55:20.806Z,7.00
2023-05-17T10:58:16.160Z,8.95
2023-05-17T11:00:45.974Z,8.95
2023-05-17T11:03:19.207Z,9.13
2023-05-17T11:06:23.671Z,10.18
2023-05-17T11:09:10.002Z,12.00
2023-05-17T11:11:38.162Z,7.22
2023-05-17T11:14:08.715Z,8.98
2023-05-17T11:16:38.649Z,8.52
2023-05-17T11:19:12.129Z,6.68
2023-05-17T11:21:47.289Z,7.38
2023-05-17T11:24:22.273Z,9.23
2023-05-17T11:26:51.976Z,8.27
2023-05-17T11:29:22.092Z,11.02
2023-05-17T11:31:53.263Z,10.85
2023-05-17T11:34:23.731Z,13.00
2023-05-17T11:36:53.616Z,10.32
2023-05-17T11:39:23.613Z,10.23
2023-05-17T11:41:53.349Z,8.32
2023-05-17T11:44:27.062Z,7.80
2023-05-17T11:47:03.547Z,8.38
2023-05-17T11:49:35.645Z,7.90
2023-05-17T11:52:04.877Z,9.10
2023-05-17T11:54:33.586Z,8.32
2023-05-17T11:57:02.912Z,9.25
2023-05-17T11:59:38.596Z,7.45
2023-05-17T12:02:06.886Z,11.70
2023-05-17T12:04:37.536Z,10.30
2023-05-17T12:07:06.144Z,8.00
2023-05-17T12:09:35.001Z,8.80
2023-05-17T12:12:04.942Z,9.65
2023-05-17T12:14:34.505Z,8.68
2023-05-17T12:17:04.999Z,9.93
2023-05-17T12:19:33.167Z,11.18
2023-05-17T12:22:09.504Z,5.90
2023-05-17T12:24:41.895Z,6.60
2023-05-17T12:27:10.655Z,7.32
2023-05-17T12:29:40.773Z,11.15
2023-05-17T12:32:11.426Z,5.15
2023-05-17T12:34:40.949Z,7.38
2023-05-17T12:37:11.062Z,9.10
2023-05-17T12:39:39.835Z,8.52
2023-05-17T12:42:09.055Z,7.03
2023-05-17T12:44:37.193Z,7.88
2023-05-17T12:47:07.210Z,10.35
2023-05-17T12:49:40.296Z,7.88
2023-05-17T12:52:08.863Z,10.18
2023-05-17T12:54:37.032Z,9.05
2023-05-17T12:57:13.016Z,10.55
2023-05-17T12:59:48.875Z,8.02
2023-05-17T13:02:18.673Z,9.55
2023-05-17T13:04:47.826Z,8.55
2023-05-17T13:07:24.187Z,7.15
2023-05-17T13:09:52.511Z,9.00
2023-05-17T13:12:22.362Z,8.82
2023-05-17T13:14:53.424Z,8.57
2023-05-17T13:17:26.928Z,9.85
2023-05-17T13:19:57.166Z,7.78
2023-05-17T13:22:25.984Z,7.15
2023-05-17T13:24:54.669Z,9.00
2023-05-17T13:27:22.822Z,7.43
2023-05-17T13:29:50.845Z,9.13
2023-05-17T13:32:19.221Z,7.07
2023-05-17T13:34:48.576Z,8.27
2023-05-17T13:37:16.688Z,9.35
2023-05-17T13:39:44.822Z,5.55
2023-05-17T13:42:14.457Z,11.02
2023-05-17T13:44:42.550Z,6.28
2023-05-17T13:47:10.736Z,7.75
2023-05-17T13:49:38.863Z,6.55
2023-05-17T13:52:09.589Z,7.88
2023-05-17T13:54:39.238Z,8.07
2023-05-17T13:57:08.493Z,5.35
2023-05-17T13:59:36.599Z,6.80
2023-05-17T14:02:05.197Z,5.72
2023-05-17T14:04:33.301Z,6.13
2023-05-17T14:07:01.886Z,7.05
2023-05-17T14:09:33.879Z,9.57
2023-05-17T14:12:02.426Z,5.47
2023-05-17T14:14:31.927Z,7.55
2023-05-17T14:17:01.462Z,5.60
2023-05-17T14:19:29.738Z,5.38
2023-05-17T14:21:57.941Z,5.22
2023-05-17T14:24:25.947Z,4.38
2023-05-17T14:26:55.287Z,6.80
2023-05-17T14:29:25.655Z,6.10
2023-05-17T14:31:53.709Z,4.47
2023-05-17T14:34:22.321Z,6.93
2023-05-17T14:36:51.095Z,8.35
2023-05-17T14:39:19.368Z,5.70
2023-05-17T14:41:47.434Z,4.18
2023-05-17T14:44:16.867Z,7.35
2023-05-17T14:46:44.924Z,5.40
2023-05-17T14:49:13.891Z,5.78
2023-05-17T14:51:42.312Z,5.35
2023-05-17T14:54:12.798Z,6.55
2023-05-17T14:56:42.478Z,7.05
2023-05-17T14:59:16.568Z,5.90
2023-05-17T15:01:46.081Z,6.75
2023-05-17T15:04:14.690Z,5.82
2023-05-17T15:06:42.846Z,7.95
2023-05-17T15:09:13.467Z,3.72
2023-05-17T15:11:42.140Z,5.20
2023-05-17T15:14:10.134Z,4.57
2023-05-17T15:16:38.738Z,4.18
2023-05-17T15:19:08.221Z,5.85
2023-05-17T15:21:56.152Z,7.47
2023-05-17T15:24:24.251Z,8.20
2023-05-17T15:26:52.714Z,6.82
2023-05-17T15:29:21.043Z,10.27
2023-05-17T15:31:49.134Z,12.00
2023-05-17T15:34:18.688Z,16.88
2023-05-17T15:36:48.255Z,9.25
2023-05-17T15:39:16.434Z,10.15
2023-05-17T15:41:45.610Z,9.32
2023-05-17T15:44:13.971Z,11.57
2023-05-17T15:46:42.132Z,9.73
2023-05-17T15:49:10.287Z,8.60
2023-05-17T15:51:39.649Z,9.07
2023-05-17T15:54:08.009Z,9.43
2023-05-17T15:56:38.256Z,8.35
2023-05-17T15:59:07.849Z,7.57
2023-05-17T16:01:36.302Z,8.45
2023-05-17T16:04:04.752Z,7.80
2023-05-17T16:06:36.242Z,6.57
2023-05-17T16:09:06.262Z,9.10
2023-05-17T16:11:34.325Z,8.45
2023-05-17T16:14:02.619Z,7.07
2023-05-17T16:16:30.838Z,7.35
2023-05-17T16:18:59.028Z,8.63
2023-05-17T16:21:27.104Z,8.05
2023-05-17T16:23:55.109Z,8.65
2023-05-17T16:26:24.625Z,8.70
2023-05-17T16:28:52.860Z,8.95
2023-05-17T16:31:21.000Z,7.28
2023-05-17T16:33:49.186Z,6.30
2023-05-17T16:36:17.836Z,7.72
2023-05-17T16:38:45.939Z,6.00
2023-05-17T16:41:13.948Z,10.07
2023-05-17T16:43:43.349Z,8.80
2023-05-17T16:46:11.330Z,8.38
2023-05-17T16:48:39.338Z,8.77
2023-05-17T16:51:07.392Z,6.70
2023-05-17T16:53:35.362Z,5.82
2023-05-17T16:56:03.432Z,6.15
2023-05-17T16:58:31.547Z,7.95
2023-05-17T17:01:01.569Z,7.93
2023-05-17T17:03:29.689Z,8.57
2023-05-17T17:05:57.981Z,9.00
2023-05-17T17:08:26.152Z,8.68
2023-05-17T17:10:54.286Z,8.57
2023-05-17T17:13:22.396Z,7.57
2023-05-17T17:15:51.533Z,13.27
2023-05-17T17:18:20.904Z,9.60
2023-05-17T17:20:49.065Z,10.88
2023-05-17T17:23:17.095Z,7.10
2023-05-17T17:25:45.248Z,6.63
2023-05-17T17:28:13.767Z,5.47
2023-05-17T17:30:42.139Z,4.10
2023-05-17T17:33:10.222Z,4.70
2023-05-17T17:35:39.903Z,4.53
2023-05-17T17:38:08.202Z,4.80
2023-05-17T17:40:36.541Z,2.95
2023-05-17T17:43:04.618Z,5.55
2023-05-17T17:45:32.734Z,2.40
2023-05-17T17:48:00.835Z,2.80
2023-05-17T17:50:29.200Z,2.75
2023-05-17T17:52:59.034Z,4.15
2023-05-17T17:55:27.461Z,3.53
2023-05-17T17:57:56.120Z,5.55
2023-05-17T18:00:24.462Z,4.93
2023-05-17T18:02:52.788Z,2.90
2023-05-17T18:05:21.416Z,4.32
2023-05-17T18:07:49.414Z,3.47
2023-05-17T18:10:19.061Z,9.07
2023-05-17T18:12:48.219Z,3.15
2023-05-17T18:15:18.357Z,3.28
2023-05-17T18:17:48.906Z,3.83
2023-05-17T18:20:17.209Z,3.05
2023-05-17T18:22:45.311Z,3.97
2023-05-17T18:25:13.341Z,7.32
2023-05-17T18:27:42.739Z,3.00
2023-05-17T18:30:12.145Z,3.28
2023-05-17T18:32:40.436Z,3.47
2023-05-17T18:35:09.383Z,4.10
2023-05-17T18:37:37.606Z,3.00
2023-05-17T18:40:06.449Z,4.32
2023-05-17T18:42:34.594Z,4.30
2023-05-17T18:45:04.458Z,5.60
2023-05-17T18:47:32.708Z,3.08
2023-05-17T18:50:00.936Z,4.78
2023-05-17T18:52:29.106Z,5.75
2023-05-17T18:54:57.272Z,4.15
2023-05-17T18:57:25.339Z,3.55
2023-05-17T18:59:53.709Z,4.93
2023-05-17T19:02:23.189Z,6.38
2023-05-17T19:04:51.344Z,4.85
2023-05-17T19:07:19.513Z,5.93
2023-05-17T19:09:47.818Z,5.43
2023-05-17T19:12:15.938Z,6.35
2023-05-17T19:14:44.120Z,4.60
2023-05-17T19:17:12.438Z,3.50
2023-05-17T19:19:41.881Z,4.35
2023-05-17T19:22:11.147Z,6.13
2023-05-17T19:24:39.485Z,7.32
2023-05-17T19:27:07.627Z,7.63
2023-05-17T19:29:35.635Z,8.18
2023-05-17T19:32:04.674Z,9.25
2023-05-17T19:34:32.775Z,8.02
2023-05-17T19:37:02.231Z,8.32
2023-05-17T19:39:31.768Z,8.45
2023-05-17T19:41:59.857Z,7.72
2023-05-17T19:44:28.011Z,11.27
2023-05-17T19:46:56.235Z,6.22
2023-05-17T19:49:24.803Z,4.82
2023-05-17T19:51:54.215Z,6.85
2023-05-17T19:54:23.925Z,8.35
2023-05-17T19:56:52.408Z,5.72
2023-05-17T19:59:20.759Z,5.93
2023-05-17T20:01:51.953Z,9.15
2023-05-17T20:04:20.106Z,6.28
2023-05-17T20:06:48.397Z,8.48
2023-05-17T20:09:16.545Z,9.88
2023-05-17T20:11:46.151Z,9.85
2023-05-17T20:14:16.299Z,9.05
2023-05-17T20:16:44.487Z,6.40
2023-05-17T20:19:12.659Z,6.47
2023-05-17T20:21:41.280Z,6.10
2023-05-17T20:24:09.805Z,6.40
2023-05-17T20:26:37.957Z,7.35
2023-05-17T20:29:08.822Z,5.43
2023-05-17T20:31:37.584Z,5.28
2023-05-17T20:34:06.509Z,5.20
2023-05-17T20:36:34.692Z,5.43
2023-05-17T20:39:03.532Z,4.65
2023-05-17T20:41:31.747Z,5.15
2023-05-17T20:43:59.901Z,4.88
2023-05-17T20:46:30.944Z,3.58
2023-05-17T20:49:01.092Z,4.50
2023-05-17T20:51:29.153Z,3.25
2023-05-17T20:53:57.214Z,3.72
2023-05-17T20:56:25.596Z,4.78
2023-05-17T20:58:53.632Z,3.63
2023-05-17T21:01:22.615Z,2.92
2023-05-17T21:03:52.728Z,3.83
2023-05-17T21:06:22.109Z,3.42
2023-05-17T21:08:50.285Z,2.75
2023-05-17T21:11:21.389Z,4.15
2023-05-17T21:13:50.185Z,3.60
2023-05-17T21:16:18.667Z,2.80
2023-05-17T21:18:46.946Z,3.05
2023-05-17T21:21:16.500Z,4.18
2023-05-17T21:23:44.559Z,3.20
2023-05-17T21:26:12.686Z,3.28
2023-05-17T21:28:40.822Z,3.13
2023-05-17T21:31:08.903Z,2.72
2023-05-17T21:33:37.643Z,3.13
2023-05-17T21:36:05.946Z,3.05
2023-05-17T21:38:35.422Z,4.30
2023-05-17T21:41:03.704Z,6.07
2023-05-17T21:43:31.795Z,3.50
2023-05-17T21:45:59.845Z,2.90
2023-05-17T21:48:28.020Z,3.40
2023-05-17T21:50:56.102Z,4.78
2023-05-17T21:53:24.149Z,3.70
2023-05-17T21:56:02.198Z,3.65
2023-05-17T21:58:31.802Z,3.85
2023-05-17T22:00:59.825Z,4.43
2023-05-17T22:03:27.974Z,3.25
2023-05-17T22:05:56.402Z,4.65
2023-05-17T22:08:24.415Z,3.95
2023-05-17T22:10:55.739Z,3.17
2023-05-17T22:13:26.320Z,3.45
2023-05-17T22:15:57.659Z,4.70
2023-05-17T22:18:27.172Z,4.00
2023-05-17T22:20:59.393Z,8.23
2023-05-17T22:23:28.084Z,8.15
2023-05-17T22:26:00.561Z,5.22
2023-05-17T22:28:28.876Z,6.57
2023-05-17T22:30:57.185Z,6.50
2023-05-17T22:33:25.290Z,6.32
2023-05-17T22:35:54.381Z,5.10
2023-05-17T22:38:23.422Z,5.55
2023-05-17T22:40:51.479Z,5.78
2023-05-17T22:43:22.496Z,5.38
2023-05-17T22:45:51.161Z,5.63
2023-05-17T22:48:20.873Z,3.60
2023-05-17T22:50:49.170Z,3.33
2023-05-17T22:53:18.717Z,5.07
2023-05-17T22:55:49.127Z,4.68
2023-05-17T22:58:17.324Z,4.20
2023-05-17T23:00:46.880Z,2.70
2023-05-17T23:03:15.447Z,2.38
2023-05-17T23:05:45.572Z,3.17
2023-05-17T23:08:15.614Z,3.03
2023-05-17T23:10:44.677Z,6.13
2023-05-17T23:13:13.048Z,3.72
2023-05-17T23:15:46.858Z,4.18
2023-05-17T23:18:17.351Z,2.42
2023-05-17T23:20:46.437Z,2.35
2023-05-17T23:23:15.495Z,3.10
2023-05-17T23:25:44.867Z,1.90
2023-05-17T23:28:14.534Z,2.53
2023-05-17T23:30:44.577Z,2.42
2023-05-17T23:33:12.792Z,2.00
2023-05-17T23:35:42.268Z,2.00
2023-05-17T23:38:10.338Z,2.08
2023-05-17T23:40:38.325Z,2.92
2023-05-17T23:43:08.707Z,5.40
2023-05-17T23:45:36.777Z,2.05
2023-05-17T23:48:04.825Z,2.15
2023-05-17T23:50:32.847Z,2.15
2023-05-17T23:53:03.401Z,2.25
2023-05-17T23:55:31.504Z,1.90
2023-05-17T23:57:59.486Z,4.22
